Time;durP1;ratioP1;P1;durP2;ratioP2;P2;SDS_P1;SDS_P2;PMS_P1;PMS_P2;Temp;Humidity;BMP_temperature;BMP_pressure;BME280_temperature;BME280_humidity;BME280_pressure;Samples;Min_cycle;Max_cycle;Signal;HPM_P1;HPM_P2
2021/12/06 00:00:37;;;;;;;;;74.33;53.00;;;;;6.35;78.45;101044.13;5004271;28;45514;-73
2021/12/06 00:03:10;;;;;;;;;70.33;52.00;;;;;6.16;78.25;101027.72;5012921;28;45511;-73
2021/12/06 00:05:36;;;;;;;;;70.33;53.00;;;;;6.32;78.49;101052.97;4999864;28;45444;-73
2021/12/06 00:08:02;;;;;;;;;75.00;52.33;;;;;6.30;78.86;101057.34;5015000;28;46189;-73
2021/12/06 00:10:27;;;;;;;;;74.00;53.33;;;;;6.29;78.73;101070.50;5013111;28;45374;-73
2021/12/06 00:12:53;;;;;;;;;66.67;52.33;;;;;6.23;78.63;101057.44;5009725;28;45554;-73
2021/12/06 00:15:18;;;;;;;;;69.33;53.33;;;;;6.13;79.12;101049.66;5004586;28;45419;-73
2021/12/06 00:17:44;;;;;;;;;68.00;48.67;;;;;6.29;79.72;101078.38;4999987;28;45891;-73
2021/12/06 00:20:12;;;;;;;;;63.00;47.67;;;;;6.30;79.57;101088.91;5013859;28;45475;-73
2021/12/06 00:22:38;;;;;;;;;57.33;48.00;;;;;6.23;79.54;101067.94;5014484;28;45637;-73
2021/12/06 00:25:04;;;;;;;;;63.00;48.00;;;;;6.17;79.22;101065.38;5013607;28;45562;-73
2021/12/06 00:27:29;;;;;;;;;60.67;48.33;;;;;6.18;79.42;101078.53;5007458;28;45840;-73
2021/12/06 00:29:55;;;;;;;;;70.67;51.67;;;;;6.24;79.81;101088.97;5025093;28;45565;-73
2021/12/06 00:32:22;;;;;;;;;69.00;53.00;;;;;6.33;79.72;101109.03;5011891;28;45360;-73
2021/12/06 00:34:48;;;;;;;;;68.33;54.00;;;;;6.36;78.92;101111.63;5003987;28;45556;-73
2021/12/06 00:37:23;;;;;;;;;75.00;55.00;;;;;6.37;79.52;101115.97;5011918;28;46140;-73
2021/12/06 00:39:52;;;;;;;;;71.33;53.33;;;;;6.39;78.77;101121.25;5007204;28;45525;-73
2021/12/06 00:42:19;;;;;;;;;69.33;53.33;;;;;6.32;78.96;101112.53;5013849;28;45302;-73
2021/12/06 00:44:45;;;;;;;;;66.67;52.67;;;;;6.31;79.68;101097.66;5012481;28;45607;-73
2021/12/06 00:47:10;;;;;;;;;73.00;55.67;;;;;6.25;79.29;101090.69;5006748;28;46016;-73
2021/12/06 00:49:36;;;;;;;;;68.00;53.33;;;;;6.42;79.11;101116.81;5004282;28;45332;-73
2021/12/06 00:52:02;;;;;;;;;68.67;51.00;;;;;6.42;79.81;101121.19;5009615;28;45551;-73
2021/12/06 00:54:29;;;;;;;;;74.67;53.00;;;;;6.39;79.14;101115.97;5013601;28;45371;-73
2021/12/06 00:56:55;;;;;;;;;69.67;53.00;;;;;6.41;79.94;101128.19;5012630;28;46071;-73
2021/12/06 00:59:20;;;;;;;;;70.00;56.00;;;;;6.41;79.81;101140.47;5013513;28;45911;-73
2021/12/06 01:01:46;;;;;;;;;77.67;56.33;;;;;6.30;79.54;101122.22;5013657;28;45823;-73
2021/12/06 01:04:11;;;;;;;;;75.00;53.67;;;;;6.36;79.44;101135.28;5009328;28;45397;-73
2021/12/06 01:06:36;;;;;;;;;72.33;53.33;;;;;6.18;78.85;101107.44;5001264;28;46122;-74
2021/12/06 01:09:03;;;;;;;;;64.33;50.00;;;;;6.35;79.47;101137.03;5009120;28;45523;-73
2021/12/06 01:11:28;;;;;;;;;67.67;50.67;;;;;6.17;79.90;101099.53;5013749;28;45428;-73
2021/12/06 01:13:53;;;;;;;;;64.00;51.00;;;;;6.21;79.57;101109.16;5014403;28;45335;-73
2021/12/06 01:16:19;;;;;;;;;64.33;49.00;;;;;6.39;79.05;101144.91;5012494;28;45442;-73
2021/12/06 01:18:44;;;;;;;;;64.67;48.33;;;;;6.39;78.74;101144.91;5013234;28;45502;-73
2021/12/06 01:21:23;;;;;;;;;72.00;52.33;;;;;6.08;79.45;101092.63;5012457;28;45510;-73
2021/12/06 01:23:56;;;;;;;;;64.00;52.00;;;;;6.38;79.05;101146.63;4999841;28;45387;-73
2021/12/06 01:29:24;;;;;;;;;71.00;47.67;;;;;6.17;79.28;101117.94;5013740;28;45919;-73
2021/12/06 01:39:55;;;;;;;;;63.67;47.33;;;;;6.15;79.55;101133.75;5011998;28;45684;-73
2021/12/06 01:42:20;;;;;;;;;58.00;48.00;;;;;6.14;78.76;101135.47;5016000;28;45581;-73
2021/12/06 01:44:51;;;;;;;;;67.33;51.67;;;;;6.27;78.96;101153.78;5016484;28;45332;-73
2021/12/06 01:47:19;;;;;;;;;72.00;52.00;;;;;6.29;78.38;101163.38;5001948;28;47062;-73
2021/12/06 01:49:55;;;;;;;;;63.67;50.00;;;;;6.33;78.94;101165.09;5011890;28;45447;-73
2021/12/06 01:52:27;;;;;;;;;64.33;50.00;;;;;6.34;79.47;101182.59;5016322;28;45754;-73
2021/12/06 01:54:55;;;;;;;;;67.00;50.00;;;;;6.20;78.94;101150.31;5012645;28;45610;-73
2021/12/06 01:57:22;;;;;;;;;62.00;47.67;;;;;6.32;79.52;101159.84;5016329;28;45462;-73
2021/12/06 01:59:48;;;;;;;;;64.67;48.33;;;;;6.31;79.13;101173.88;5014875;28;45481;-73
2021/12/06 02:02:15;;;;;;;;;85.00;66.33;;;;;6.25;78.68;101168.69;5014573;28;45349;-73
2021/12/06 02:04:42;;;;;;;;;76.33;56.00;;;;;6.29;78.75;101176.50;5016508;28;45350;-73
2021/12/06 02:07:15;;;;;;;;;66.33;51.33;;;;;6.29;79.67;101184.38;5015911;28;46723;-72
2021/12/06 02:09:42;;;;;;;;;78.00;54.00;;;;;6.24;79.49;101190.59;5014959;28;45491;-73
2021/12/06 02:12:09;;;;;;;;;73.33;53.00;;;;;6.09;78.87;101165.34;5016294;28;45336;-73
2021/12/06 02:19:39;;;;;;;;;66.33;51.00;;;;;6.30;78.60;101201.94;5015806;28;45536;-73
2021/12/06 02:22:08;;;;;;;;;68.00;52.33;;;;;6.20;78.85;101191.50;5014815;28;45472;-73
2021/12/06 02:24:37;;;;;;;;;64.33;52.00;;;;;6.19;79.27;101189.78;5015798;28;45450;-73
2021/12/06 02:27:03;;;;;;;;;68.00;50.67;;;;;6.16;79.41;101184.53;5014332;28;45458;-73
2021/12/06 02:29:29;;;;;;;;;64.00;48.00;;;;;6.30;79.70;101209.81;5014532;28;47824;-73
2021/12/06 02:31:55;;;;;;;;;63.67;49.67;;;;;6.18;79.91;101188.00;5015106;28;45408;-73
2021/12/06 02:34:21;;;;;;;;;63.67;47.00;;;;;6.12;79.64;101187.19;5013821;28;45417;-73
2021/12/06 02:36:46;;;;;;;;;72.33;53.33;;;;;6.10;78.89;101182.84;5009387;28;46054;-73
2021/12/06 02:39:20;;;;;;;;;65.00;50.67;;;;;6.21;78.91;101204.66;5009891;28;45609;-73
2021/12/06 02:41:48;;;;;;;;;61.00;49.00;;;;;6.32;79.72;101213.31;5015647;28;47687;-73
2021/12/06 02:44:14;;;;;;;;;70.33;49.00;;;;;6.16;79.54;101185.41;5013200;28;45373;-73
2021/12/06 02:46:40;;;;;;;;;59.75;42.25;;;;;6.18;79.26;101186.28;5014719;28;46196;-73
2021/12/06 02:49:06;;;;;;;;;67.00;50.00;;;;;6.27;79.67;101204.59;5015146;28;45540;-72
2021/12/06 02:51:31;;;;;;;;;64.00;50.33;;;;;6.21;79.43;101203.78;5014849;28;45545;-72
2021/12/06 02:53:56;;;;;;;;;68.67;53.00;;;;;6.14;79.12;101182.78;5014761;28;45440;-73
2021/12/06 02:56:50;;;;;;;;;67.33;53.67;;;;;6.27;78.10;101206.34;5015119;28;46129;-73
2021/12/06 02:59:15;;;;;;;;;70.67;53.00;;;;;5.91;77.92;101140.03;5015254;28;45501;-73
2021/12/06 03:01:45;;;;;;;;;66.67;50.67;;;;;6.14;78.84;101197.69;5013861;28;45491;-73
2021/12/06 03:04:11;;;;;;;;;67.67;50.00;;;;;6.14;78.40;101203.81;5006958;28;45481;-73
2021/12/06 03:06:37;;;;;;;;;64.00;50.00;;;;;6.22;78.09;101227.41;5005642;28;47722;-73
2021/12/06 03:09:23;;;;;;;;;66.33;50.00;;;;;6.04;78.02;101196.91;5015093;28;45412;-73
2021/12/06 03:12:00;;;;;;;;;70.33;49.33;;;;;6.12;77.46;101224.00;5001702;28;45376;-73
2021/12/06 03:14:32;;;;;;;;;70.67;52.00;;;;;5.97;77.85;101207.47;5014382;28;45304;-73
2021/12/06 03:17:01;;;;;;;;;68.67;51.00;;;;;6.03;78.08;101224.06;5013276;28;48134;-73
2021/12/06 03:19:27;;;;;;;;;70.33;53.00;;;;;5.97;77.38;101218.88;5014763;28;45531;-73
2021/12/06 03:21:53;;;;;;;;;66.00;50.00;;;;;5.92;77.57;101215.34;5013185;28;45505;-73
2021/12/06 03:24:19;;;;;;;;;68.67;50.33;;;;;5.75;78.50;101197.09;5005716;28;45489;-73
2021/12/06 03:26:46;;;;;;;;;64.67;51.00;;;;;5.77;78.11;101208.47;5011690;28;48158;-73
2021/12/06 03:29:12;;;;;;;;;64.33;48.67;;;;;5.78;77.70;101220.69;5012183;28;45482;-73
2021/12/06 03:31:38;;;;;;;;;61.33;47.67;;;;;5.64;78.38;101198.91;5008649;28;45333;-73
2021/12/06 03:34:05;;;;;;;;;70.00;47.33;;;;;5.56;78.46;101188.47;5010480;28;45475;-72
2021/12/06 03:36:32;;;;;;;;;69.00;51.00;;;;;5.37;77.49;101173.69;5015024;28;45489;-72
2021/12/06 03:38:59;;;;;;;;;59.67;46.33;;;;;5.60;77.37;101231.31;5014614;28;45423;-72
2021/12/06 03:41:28;;;;;;;;;64.00;47.67;;;;;5.44;77.90;101214.78;5006581;28;45243;-72
2021/12/06 03:43:54;;;;;;;;;63.00;47.33;;;;;5.51;77.23;101244.50;5012975;28;45363;-72
2021/12/06 03:46:21;;;;;;;;;67.67;49.33;;;;;5.21;77.45;101196.53;5014102;28;46412;-73
2021/12/06 03:48:47;;;;;;;;;66.67;48.33;;;;;5.30;77.57;101233.25;5014011;28;45584;-72
2021/12/06 03:51:13;;;;;;;;;58.67;48.33;;;;;5.26;77.81;101233.25;5014664;28;45518;-73
2021/12/06 03:53:38;;;;;;;;;64.67;47.67;;;;;5.22;78.08;101229.78;5013522;28;45452;-73
2021/12/06 03:56:04;;;;;;;;;57.00;42.00;;;;;5.29;77.96;101246.34;5000150;28;45452;-73
2021/12/06 03:58:30;;;;;;;;;68.33;49.33;;;;;5.26;77.74;101238.50;5013787;28;45555;-73
2021/12/06 04:00:56;;;;;;;;;71.67;50.33;;;;;5.11;77.35;101221.06;5014262;28;45502;-73
2021/12/06 04:03:24;;;;;;;;;66.00;47.67;;;;;5.18;78.23;101236.78;5007820;28;46832;-73
2021/12/06 04:05:50;;;;;;;;;66.33;52.00;;;;;5.16;78.50;101237.66;5013900;28;46098;-73
2021/12/06 04:08:16;;;;;;;;;66.67;52.67;;;;;5.10;78.12;101229.81;5014384;28;45685;-73
2021/12/06 04:10:42;;;;;;;;;68.67;53.33;;;;;5.06;78.60;101228.97;5014217;28;45508;-72
2021/12/06 04:13:08;;;;;;;;;69.67;49.33;;;;;4.96;78.54;101215.00;5013914;28;45649;-72
2021/12/06 04:15:35;;;;;;;;;68.67;53.67;;;;;5.10;78.22;101240.31;5011227;28;46320;-72
2021/12/06 04:18:01;;;;;;;;;70.67;48.00;;;;;4.95;78.82;101233.38;5012880;28;45418;-73
2021/12/06 04:20:28;;;;;;;;;63.67;50.33;;;;;5.05;77.91;101247.31;5014260;28;45311;-73
2021/12/06 04:22:54;;;;;;;;;71.00;51.00;;;;;4.97;77.45;101240.38;5014670;28;45371;-73
2021/12/06 04:25:20;;;;;;;;;59.33;46.33;;;;;4.93;78.39;101246.47;5013210;28;46450;-73
2021/12/06 04:27:59;;;;;;;;;64.00;49.67;;;;;4.83;78.12;101238.66;5005259;28;45663;-73
2021/12/06 04:30:26;;;;;;;;;64.67;47.33;;;;;4.84;77.87;101254.38;5001574;28;45293;-73
2021/12/06 04:32:53;;;;;;;;;61.67;45.33;;;;;4.89;78.32;101270.97;5013546;28;45475;-73
2021/12/06 04:35:20;;;;;;;;;71.33;51.67;;;;;4.90;77.45;101275.34;5013559;28;46846;-73
2021/12/06 04:37:45;;;;;;;;;63.00;49.00;;;;;4.83;78.31;101257.03;5014365;28;45480;-73
2021/12/06 04:40:11;;;;;;;;;63.00;48.00;;;;;4.78;79.07;101255.25;5014058;28;45387;-73
2021/12/06 04:42:37;;;;;;;;;64.33;47.00;;;;;4.89;77.92;101264.88;5011660;28;45501;-73
2021/12/06 04:45:03;;;;;;;;;59.00;46.67;;;;;4.72;78.31;101238.69;5012754;28;45463;-73
2021/12/06 04:47:29;;;;;;;;;52.33;46.00;;;;;4.77;78.54;101248.28;5013493;28;45486;-73
2021/12/06 04:49:54;;;;;;;;;66.00;48.00;;;;;4.87;79.00;101272.72;5008872;28;45357;-73
2021/12/06 04:52:19;;;;;;;;;74.00;48.67;;;;;4.72;79.28;101254.41;5008901;28;45450;-73
2021/12/06 04:54:49;;;;;;;;;69.33;50.67;;;;;4.89;78.40;101283.22;5006229;28;48339;-73
2021/12/06 04:57:38;;;;;;;;;64.00;49.67;;;;;4.91;78.23;101302.44;5011312;28;45645;-73
2021/12/06 05:00:13;;;;;;;;;77.00;53.33;;;;;4.93;78.64;101308.56;5012264;28;45333;-73
2021/12/06 05:02:40;;;;;;;;;68.33;52.00;;;;;4.85;78.76;101299.81;5011864;28;45335;-73
2021/12/06 05:05:18;;;;;;;;;68.33;53.00;;;;;4.90;79.75;101321.69;5013633;28;45525;-73
2021/12/06 05:07:49;;;;;;;;;65.67;52.00;;;;;4.97;80.17;101326.94;5002653;28;45538;-73
2021/12/06 05:10:16;;;;;;;;;71.00;52.00;;;;;4.89;80.45;101299.84;5013116;28;45526;-73
2021/12/06 05:12:43;;;;;;;;;61.33;48.00;;;;;4.90;79.53;101298.94;5017437;28;45644;-73
2021/12/06 05:15:09;;;;;;;;;59.33;49.00;;;;;5.03;79.56;101302.44;5017457;28;47153;-73
2021/12/06 05:17:35;;;;;;;;;64.67;49.33;;;;;4.98;79.38;101299.81;5021523;28;45880;-73
2021/12/06 05:20:02;;;;;;;;;73.33;54.67;;;;;5.06;79.46;101306.78;5022978;28;45430;-73
2021/12/06 05:22:28;;;;;;;;;72.00;52.00;;;;;4.94;79.70;101291.94;5021363;28;45351;-74
2021/12/06 05:24:54;;;;;;;;;65.33;49.33;;;;;5.08;79.54;101308.53;5015298;28;46325;-73
2021/12/06 05:27:26;;;;;;;;;70.67;53.00;;;;;5.09;79.19;101310.28;5013174;28;45473;-73
2021/12/06 05:29:56;;;;;;;;;67.67;52.00;;;;;4.92;79.26;101284.09;5016725;28;45447;-73
2021/12/06 05:32:21;;;;;;;;;66.67;49.67;;;;;4.91;79.55;101276.22;5005857;28;45468;-73
2021/12/06 05:34:49;;;;;;;;;69.67;53.00;;;;;5.13;78.80;101317.25;5011186;28;45967;-73
2021/12/06 05:37:14;;;;;;;;;63.67;49.00;;;;;4.93;79.28;101292.81;5015711;28;46047;-73
2021/12/06 05:39:41;;;;;;;;;67.33;47.67;;;;;5.14;79.80;101326.00;5016735;28;45533;-73
2021/12/06 05:42:10;;;;;;;;;66.67;50.00;;;;;5.15;79.20;101328.63;5014265;28;45424;-73
2021/12/06 05:44:36;;;;;;;;;66.67;49.33;;;;;5.15;79.59;101326.00;5001389;28;46289;-73
2021/12/06 05:47:03;;;;;;;;;65.00;48.33;;;;;5.04;78.93;101308.56;5013305;28;45416;-73
2021/12/06 05:49:29;;;;;;;;;65.67;50.33;;;;;5.13;79.22;101316.41;5016293;28;45327;-73
2021/12/06 05:51:55;;;;;;;;;66.67;39.67;;;;;5.11;79.85;101312.88;5014807;28;45434;-74
2021/12/06 05:54:21;;;;;;;;;67.00;51.67;;;;;5.16;79.64;101321.63;5016040;28;45640;-74
2021/12/06 05:56:49;;;;;;;;;67.33;51.33;;;;;5.16;79.26;101325.13;5016224;28;45387;-73
2021/12/06 05:59:15;;;;;;;;;71.67;52.00;;;;;5.11;79.61;101326.88;5014369;28;46106;-73
2021/12/06 06:01:40;;;;;;;;;73.67;51.67;;;;;5.06;78.92;101315.53;5004935;28;45546;-73
2021/12/06 06:04:06;;;;;;;;;71.33;51.67;;;;;5.16;79.21;101335.63;5008673;28;47029;-73
2021/12/06 06:06:34;;;;;;;;;68.33;53.67;;;;;5.11;78.95;101329.50;5016339;28;45347;-73
2021/12/06 06:09:02;;;;;;;;;74.33;53.00;;;;;5.14;79.25;101334.75;5015946;28;45302;-73
2021/12/06 06:11:28;;;;;;;;;69.67;50.67;;;;;5.13;79.51;101334.75;5014949;28;45980;-73
2021/12/06 06:13:54;;;;;;;;;77.00;56.00;;;;;5.16;79.41;101340.00;5012661;28;46507;-73
2021/12/06 06:16:21;;;;;;;;;73.00;50.67;;;;;5.05;79.18;101321.66;5015147;28;45698;-73
2021/12/06 06:18:49;;;;;;;;;69.33;53.00;;;;;5.04;78.37;101303.31;5012344;28;45470;-73
2021/12/06 06:21:15;;;;;;;;;70.33;53.67;;;;;5.12;79.22;101318.16;5014836;28;45469;-73
2021/12/06 06:23:40;;;;;;;;;64.67;50.33;;;;;4.97;78.68;101297.19;5014606;28;46534;-73
2021/12/06 06:26:06;;;;;;;;;68.67;53.67;;;;;4.99;79.55;101306.78;5015913;28;45387;-73
2021/12/06 06:28:31;;;;;;;;;65.00;48.67;;;;;4.96;78.65;101304.19;5015843;28;45438;-73
2021/12/06 06:30:57;;;;;;;;;66.33;52.33;;;;;5.00;78.27;101321.69;5015755;28;45402;-73
2021/12/06 06:33:23;;;;;;;;;70.00;49.00;;;;;4.34;77.55;101226.50;5011687;28;45604;-73
2021/12/06 06:35:49;;;;;;;;;65.00;48.67;;;;;4.94;77.71;101334.81;5002544;28;45364;-73
2021/12/06 06:38:14;;;;;;;;;62.33;51.00;;;;;4.77;78.05;101305.09;5016596;28;45760;-73
2021/12/06 06:40:40;;;;;;;;;73.00;52.33;;;;;4.79;77.75;101313.81;5014917;28;45583;-73
2021/12/06 06:43:05;;;;;;;;;72.33;54.00;;;;;4.81;78.75;101333.06;5012676;28;47542;-73
2021/12/06 06:45:31;;;;;;;;;74.33;53.33;;;;;4.85;77.92;101345.28;5015506;28;45481;-73
2021/12/06 06:47:56;;;;;;;;;63.00;49.67;;;;;4.73;78.26;101335.69;5011958;28;45403;-73
2021/12/06 06:50:23;;;;;;;;;61.33;47.67;;;;;4.78;77.92;101349.66;5015567;28;45295;-73
2021/12/06 06:52:50;;;;;;;;;76.33;57.33;;;;;4.75;78.79;101356.66;5007916;28;45772;-73
2021/12/06 06:55:16;;;;;;;;;81.00;62.33;;;;;4.73;77.29;101342.66;5013076;28;45355;-73
2021/12/06 06:57:43;;;;;;;;;71.67;55.67;;;;;4.61;78.89;101330.44;5015130;28;45460;-73
2021/12/06 07:00:12;;;;;;;;;73.33;56.00;;;;;4.51;78.29;101315.59;5015554;28;45585;-73
2021/12/06 07:02:38;;;;;;;;;75.00;55.67;;;;;4.64;77.51;101337.44;5028225;28;47040;-73
2021/12/06 07:05:05;;;;;;;;;79.00;57.67;;;;;4.63;77.99;101340.94;5015224;28;45340;-73
2021/12/06 07:07:30;;;;;;;;;75.00;56.67;;;;;4.38;77.90;101304.22;5014411;28;45538;-73
2021/12/06 07:09:56;;;;;;;;;79.67;55.67;;;;;4.58;77.40;101350.56;5014526;28;45392;-73
2021/12/06 07:12:22;;;;;;;;;75.33;55.67;;;;;4.49;78.51;101351.41;5013138;28;46560;-73
2021/12/06 07:14:47;;;;;;;;;78.00;60.33;;;;;4.41;78.24;101335.72;5015227;28;45400;-73
2021/12/06 07:17:14;;;;;;;;;86.00;62.67;;;;;4.35;78.12;101321.69;5001495;28;45524;-73
2021/12/06 07:19:39;;;;;;;;;75.00;59.67;;;;;4.52;78.02;101341.81;5013255;28;45897;-73
2021/12/06 07:22:06;;;;;;;;;79.67;58.33;;;;;4.52;78.65;101340.94;5014835;28;46339;-73
2021/12/06 07:24:31;;;;;;;;;79.33;58.00;;;;;4.38;78.10;101312.09;5013555;28;45510;-73
2021/12/06 07:26:57;;;;;;;;;76.67;57.00;;;;;4.41;78.54;101319.97;5004654;28;45373;-73
2021/12/06 07:29:23;;;;;;;;;82.00;56.67;;;;;4.44;78.67;101335.72;4997659;28;45495;-73
2021/12/06 07:31:49;;;;;;;;;69.33;53.00;;;;;4.53;78.53;101348.81;5014305;28;45565;-74
2021/12/06 07:34:15;;;;;;;;;79.00;54.00;;;;;4.57;78.27;101349.69;5011975;28;46007;-73
2021/12/06 07:36:40;;;;;;;;;79.00;58.00;;;;;4.44;76.08;101348.81;5014484;28;45391;-73
2021/12/06 07:39:06;;;;;;;;;75.00;57.00;;;;;4.37;76.69;101346.16;5013884;28;45597;-74
2021/12/06 07:41:31;;;;;;;;;77.33;55.67;;;;;4.14;75.45;101325.19;5014960;28;46005;-74
2021/12/06 07:43:58;;;;;;;;;78.33;57.00;;;;;4.11;76.00;101347.00;5015151;28;45449;-75
2021/12/06 07:46:25;;;;;;;;;72.67;56.00;;;;;4.12;77.01;101367.09;5014482;28;45361;-73
2021/12/06 07:48:52;;;;;;;;;82.33;56.33;;;;;3.84;77.06;101324.25;5014193;28;45443;-73
2021/12/06 07:51:23;;;;;;;;;83.67;56.33;;;;;4.06;76.46;101369.72;5008047;28;45827;-73
2021/12/06 07:53:49;;;;;;;;;83.67;56.00;;;;;3.86;76.83;101341.72;4997172;28;47790;-73
2021/12/06 07:56:15;;;;;;;;;89.00;56.67;;;;;3.92;77.08;101371.41;5007223;28;45302;-73
2021/12/06 07:58:40;;;;;;;;;80.33;58.67;;;;;3.85;78.42;101373.09;5013180;28;45456;-73
2021/12/06 08:01:06;;;;;;;;;87.67;56.67;;;;;3.82;77.97;101362.63;5011030;28;46037;-73
2021/12/06 08:03:33;;;;;;;;;90.00;60.67;;;;;3.79;77.67;101365.25;5010982;28;45318;-73
2021/12/06 08:06:00;;;;;;;;;87.33;59.33;;;;;3.78;79.01;101355.66;5011197;28;45454;-72
2021/12/06 08:08:28;;;;;;;;;79.33;54.00;;;;;3.74;79.16;101341.69;5011620;28;45519;-72
2021/12/06 08:11:10;;;;;;;;;79.33;55.00;;;;;3.69;78.69;101353.00;5009982;28;47332;-72
2021/12/06 08:13:37;;;;;;;;;84.00;60.33;;;;;3.76;79.40;101367.84;5012434;28;45540;-73
2021/12/06 08:16:09;;;;;;;;;81.00;57.33;;;;;3.57;78.64;101341.59;5011461;28;45434;-72
2021/12/06 08:18:35;;;;;;;;;87.67;59.67;;;;;3.59;79.21;101347.72;5010995;28;45384;-72
2021/12/06 08:21:02;;;;;;;;;76.67;57.67;;;;;3.40;79.19;101315.34;5010968;28;46659;-74
2021/12/06 08:23:28;;;;;;;;;75.33;58.00;;;;;3.52;78.97;101332.84;5011284;28;45518;-74
2021/12/06 08:25:54;;;;;;;;;81.33;56.00;;;;;3.70;79.61;101362.59;5013906;28;45527;-73
2021/12/06 08:28:23;;;;;;;;;74.67;54.00;;;;;3.74;79.72;101367.84;5006829;28;45539;-73
2021/12/06 08:30:49;;;;;;;;;82.00;55.67;;;;;3.77;78.90;101367.00;5006804;28;47093;-73
2021/12/06 08:33:15;;;;;;;;;76.67;53.67;;;;;3.77;79.06;101364.38;5013904;28;45511;-73
2021/12/06 08:35:45;;;;;;;;;73.33;52.33;;;;;3.60;79.09;101325.91;5013857;28;45588;-73
2021/12/06 08:38:12;;;;;;;;;74.00;52.33;;;;;3.69;79.72;101314.59;5013802;28;45355;-73
2021/12/06 08:40:39;;;;;;;;;74.67;53.67;;;;;3.54;79.42;101264.81;5014164;28;46436;-74
2021/12/06 08:43:05;;;;;;;;;75.00;54.00;;;;;3.90;80.05;101329.50;5010641;28;45466;-74
2021/12/06 08:45:31;;;;;;;;;72.33;52.33;;;;;3.92;79.78;101333.00;5009166;28;45497;-73
2021/12/06 08:47:57;;;;;;;;;87.33;58.00;;;;;3.91;80.37;101326.00;5013140;28;45401;-73
2021/12/06 08:50:26;;;;;;;;;79.33;54.67;;;;;3.43;79.67;101230.75;5014669;28;46741;-73
2021/12/06 08:52:53;;;;;;;;;71.67;55.33;;;;;4.04;79.72;101325.16;5016826;28;45553;-73
2021/12/06 08:55:20;;;;;;;;;80.00;57.67;;;;;4.05;79.56;101308.56;5017050;28;45405;-73
2021/12/06 08:57:46;;;;;;;;;66.67;51.00;;;;;4.07;78.70;101304.22;5017337;28;45516;-73
2021/12/06 09:00:33;;;;;;;;;64.00;49.00;;;;;4.08;79.43;101298.09;5016651;28;46257;-73
2021/12/06 09:02:58;;;;;;;;;73.67;50.33;;;;;3.94;79.56;101284.13;5028764;28;45732;-73
2021/12/06 09:05:28;;;;;;;;;68.67;52.33;;;;;4.17;78.92;101325.19;5016864;28;45529;-73
2021/12/06 09:07:54;;;;;;;;;72.67;53.33;;;;;4.10;79.46;101314.69;5017733;28;45470;-74
2021/12/06 09:10:20;;;;;;;;;72.33;51.67;;;;;4.23;80.50;101336.53;5016642;28;45366;-74
2021/12/06 09:12:46;;;;;;;;;64.00;51.00;;;;;4.04;79.85;101306.84;5016617;28;45605;-73
2021/12/06 09:15:14;;;;;;;;;74.00;53.33;;;;;4.17;80.06;101312.09;5017303;28;45485;-73
2021/12/06 09:17:41;;;;;;;;;70.33;54.67;;;;;4.33;79.29;101314.72;5016947;28;45514;-74
2021/12/06 09:20:09;;;;;;;;;71.33;53.00;;;;;4.21;80.53;101279.78;5016581;28;45412;-74
2021/12/06 09:22:35;;;;;;;;;74.33;55.67;;;;;4.18;78.64;101279.78;5001838;28;45441;-74
2021/12/06 09:25:01;;;;;;;;;72.67;53.33;;;;;4.36;78.94;101308.63;5012970;28;45608;-73
2021/12/06 09:27:26;;;;;;;;;77.33;55.67;;;;;4.32;79.44;101285.88;5016639;28;45531;-73
2021/12/06 09:29:51;;;;;;;;;67.00;46.00;;;;;4.21;79.49;101256.22;5016659;28;46202;-74
2021/12/06 09:32:17;;;;;;;;;70.67;50.00;;;;;4.24;78.83;101258.84;5016831;28;45299;-75
2021/12/06 09:34:46;;;;;;;;;73.00;53.00;;;;;4.19;79.14;101248.34;5016696;28;45530;-74
2021/12/06 09:37:12;;;;;;;;;70.67;50.00;;;;;4.46;79.96;101289.38;5015551;28;45317;-74
2021/12/06 09:39:38;;;;;;;;;70.67;45.00;;;;;3.97;79.86;101189.84;5005271;28;45446;-74
2021/12/06 09:42:04;;;;;;;;;66.67;49.67;;;;;4.43;79.63;101278.03;5003406;28;45424;-74
2021/12/06 09:44:31;;;;;;;;;67.67;51.00;;;;;4.52;79.89;101299.88;5006586;28;45307;-74
2021/12/06 09:46:57;;;;;;;;;74.67;52.33;;;;;4.36;79.68;101256.19;5016363;28;45403;-74
2021/12/06 09:49:23;;;;;;;;;77.67;51.33;;;;;4.52;79.94;101278.03;5014271;28;45523;-74
2021/12/06 09:51:54;;;;;;;;;71.33;49.67;;;;;4.64;79.73;101304.22;5011827;28;45492;-74
2021/12/06 09:54:22;;;;;;;;;71.33;49.00;;;;;4.68;79.42;101306.00;5012399;28;45443;-74
2021/12/06 09:56:49;;;;;;;;;71.67;45.33;;;;;4.55;79.48;101280.63;5012823;28;45597;-74
2021/12/06 09:59:18;;;;;;;;;75.33;51.33;;;;;4.58;79.58;101278.00;5015372;28;46219;-74
2021/12/06 10:01:50;;;;;;;;;66.00;50.00;;;;;4.77;79.56;101292.84;5014266;28;45435;-74
2021/12/06 10:04:19;;;;;;;;;62.67;48.33;;;;;4.68;80.36;101252.69;5014715;28;45387;-74
2021/12/06 10:06:46;;;;;;;;;63.00;50.00;;;;;4.81;79.79;101253.53;5012973;28;46083;-74
2021/12/06 10:09:13;;;;;;;;;72.67;51.33;;;;;4.97;80.29;101271.84;5012877;28;46477;-74
2021/12/06 10:11:40;;;;;;;;;70.00;50.00;;;;;5.01;80.50;101273.56;5014051;28;45715;-74
2021/12/06 10:14:06;;;;;;;;;61.33;46.33;;;;;4.97;79.53;101276.19;5015592;28;45462;-74
2021/12/06 10:16:31;;;;;;;;;72.00;54.00;;;;;4.96;79.96;101264.84;5014532;28;45228;-74
2021/12/06 10:18:57;;;;;;;;;72.67;54.00;;;;;5.13;80.39;101282.28;5012262;28;45986;-74
2021/12/06 10:21:24;;;;;;;;;81.33;52.00;;;;;5.26;80.21;101262.97;5012601;28;45476;-74
2021/12/06 10:23:51;;;;;;;;;66.67;52.67;;;;;5.45;79.60;101261.16;5012855;28;45517;-74
2021/12/06 10:26:20;;;;;;;;;66.00;49.33;;;;;5.56;79.54;101240.97;5015022;28;45880;-75
2021/12/06 10:28:46;;;;;;;;;67.00;53.33;;;;;5.62;78.77;101230.44;5015986;28;45473;-75
2021/12/06 10:31:14;;;;;;;;;70.00;49.67;;;;;5.70;79.27;101206.75;5012573;28;45770;-74
2021/12/06 10:33:45;;;;;;;;;69.33;53.00;;;;;6.00;78.76;101205.69;5010445;28;45292;-75
2021/12/06 10:36:13;;;;;;;;;69.33;49.33;;;;;6.33;78.04;101208.91;5014069;28;45502;-75
2021/12/06 10:38:43;;;;;;;;;62.67;46.00;;;;;6.40;77.49;101188.69;5025373;28;47130;-74
2021/12/06 10:41:13;;;;;;;;;69.00;46.00;;;;;6.49;77.50;101159.69;5014547;28;45458;-74
2021/12/06 10:43:39;;;;;;;;;63.00;46.75;;;;;6.83;76.99;101194.38;5016074;28;45514;-73
2021/12/06 10:46:07;;;;;;;;;72.00;46.75;;;;;6.54;76.16;101131.56;5012315;28;45677;-73
2021/12/06 10:48:35;;;;;;;;;57.50;43.75;;;;;6.95;76.79;101190.72;5011087;28;46137;-73
2021/12/06 10:51:09;;;;;;;;;60.50;47.00;;;;;6.95;75.62;101175.81;5010224;28;45457;-73
2021/12/06 10:53:45;;;;;;;;;61.50;45.00;;;;;6.98;75.08;101174.91;5002121;28;45555;-74
2021/12/06 10:56:24;;;;;;;;;53.50;42.00;;;;;6.97;74.18;101152.09;5011757;28;45503;-74
2021/12/06 10:58:53;;;;;;;;;47.50;39.25;;;;;7.16;74.25;101156.22;5012803;28;46020;-73
2021/12/06 11:01:23;;;;;;;;;55.00;41.75;;;;;7.26;72.68;101147.31;5006964;28;46473;-74
2021/12/06 11:03:51;;;;;;;;;54.25;38.25;;;;;7.32;73.56;101151.59;5006528;28;45534;-73
2021/12/06 11:06:20;;;;;;;;;39.75;35.25;;;;;7.07;72.89;101116.00;5009766;28;45447;-73
2021/12/06 11:08:48;;;;;;;;;57.50;39.25;;;;;7.26;73.06;101147.31;5006087;28;45994;-73
2021/12/06 11:11:19;;;;;;;;;50.50;41.50;;;;;7.14;72.41;101131.69;5010699;28;45806;-73
2021/12/06 11:13:47;;;;;;;;;45.50;36.00;;;;;7.12;72.66;101133.47;5009424;28;45417;-73
2021/12/06 11:16:20;;;;;;;;;48.75;39.00;;;;;7.00;71.31;101138.88;5000856;28;45326;-73
2021/12/06 11:18:56;;;;;;;;;54.50;42.50;;;;;6.98;73.12;101154.72;5004100;28;45746;-74
2021/12/06 11:21:50;;;;;;;;;45.75;37.75;;;;;6.79;73.00;101134.78;5011762;28;45438;-74
2021/12/06 11:24:26;;;;;;;;;58.50;44.00;;;;;6.96;72.95;101143.31;5009082;28;45482;-74
2021/12/06 11:27:06;;;;;;;;;53.00;41.00;;;;;6.95;72.52;101143.38;5010576;28;45463;-74
2021/12/06 11:29:35;;;;;;;;;54.75;39.50;;;;;6.88;72.50;101128.53;5010583;28;47418;-75
2021/12/06 11:32:00;;;;;;;;;51.50;39.25;;;;;6.88;72.21;101137.28;4998092;28;45782;-75
2021/12/06 11:34:30;;;;;;;;;48.75;40.75;;;;;6.89;73.00;101133.78;4996447;28;45388;-74